Terminal Aerodrome Forecast
Issued by NWS Wilmington, NC

Current Version | Previous Version | Text Only | Print | Product List | Glossary On
Versions: 1 2 3 4 5 6 7 8 9 10 11 12
956
FTUS42 KILM 100538
TAFLBT
TAF
KLBT 100538Z 1006/1106 02002KT P6SM SKC
     FM101700 34007KT P6SM SKC
     FM102300 00000KT P6SM SKC=

USA.gov is the U.S. government's official web portal to all federal, state and local government web resources and services.